Time,TemperatureF,DewpointF,PressureIn,WindDirection,WindDirectionDegrees,WindSpeedMPH,WindSpeedGustMPH,Humidity,HourlyPrecipIn,Conditions,Clouds,dailyrainin,SoftwareType,DateUTC
2013-02-13 00:00:00,72.1,63.8,29.66,SSW,202,16.3,21.9,75,0.00,,---,0.00,VWS V13.01,2013-02-13 05:00:00,
2013-02-13 00:05:00,72.0,63.6,29.66,SSW,202,17.5,17.5,75,0.00,,---,0.00,VWS V13.01,2013-02-13 05:05:00,
2013-02-13 00:10:00,71.8,63.8,29.66,SSW,202,0.0,23.3,76,0.00,,---,0.00,VWS V13.01,2013-02-13 05:10:00,
2013-02-13 00:15:00,71.8,63.8,29.66,SSW,202,16.8,16.8,76,0.00,,---,0.00,VWS V13.01,2013-02-13 05:15:00,
2013-02-13 00:20:00,71.8,63.8,29.65,SSW,202,16.8,16.8,76,0.00,,---,0.00,VWS V13.01,2013-02-13 05:20:00,
2013-02-13 00:25:00,71.4,63.5,29.65,SSW,202,5.4,16.8,76,0.00,,---,0.00,VWS V13.01,2013-02-13 05:25:00,
2013-02-13 00:30:00,71.4,63.5,29.65,SSW,202,17.0,17.0,76,0.00,,---,0.00,VWS V13.01,2013-02-13 05:30:00,
2013-02-13 00:40:00,71.2,63.3,29.65,SSW,202,15.9,19.7,76,0.00,,---,0.00,VWS V13.01,2013-02-13 05:40:00,
2013-02-13 00:50:00,71.1,63.1,29.65,SSW,202,15.4,20.8,76,0.00,,---,0.00,VWS V13.01,2013-02-13 05:50:00,
2013-02-13 01:00:00,70.9,63.0,29.65,SSW,202,8.3,23.7,76,0.00,,---,0.00,VWS V13.01,2013-02-13 06:00:00,
2013-02-13 01:10:00,70.9,63.0,29.64,SSW,202,21.3,21.3,76,0.00,,---,0.00,VWS V13.01,2013-02-13 06:10:00,
2013-02-13 01:15:00,70.9,63.0,29.65,SSW,202,21.9,21.9,76,0.00,,---,0.00,VWS V13.01,2013-02-13 06:15:00,
2013-02-13 01:25:00,70.7,62.8,29.65,SSW,202,17.2,20.8,76,0.00,,---,0.00,VWS V13.01,2013-02-13 06:25:00,
2013-02-13 01:30:00,70.7,62.8,29.65,SSW,202,20.1,20.1,76,0.00,,---,0.00,VWS V13.01,2013-02-13 06:30:00,
2013-02-13 01:40:00,70.5,63.0,29.64,SSW,202,11.9,11.9,77,0.00,,---,0.00,VWS V13.01,2013-02-13 06:40:00,
2013-02-13 01:50:00,70.7,63.1,29.63,SSW,202,0.0,0.0,77,0.00,,---,0.00,VWS V13.01,2013-02-13 06:50:00,
2013-02-13 02:00:00,70.5,63.0,29.63,SSW,202,21.9,21.9,77,0.00,,---,0.00,VWS V13.01,2013-02-13 07:00:00,
2013-02-13 02:10:00,70.5,63.3,29.63,SSW,202,13.0,13.0,78,0.00,,---,0.00,VWS V13.01,2013-02-13 07:10:00,
2013-02-13 02:20:00,70.5,63.3,29.63,SSW,202,0.0,17.5,78,0.00,,---,0.00,VWS V13.01,2013-02-13 07:20:00,
2013-02-13 02:30:00,70.5,63.3,29.63,SSW,202,0.0,0.0,78,0.00,,---,0.00,VWS V13.01,2013-02-13 07:30:00,
2013-02-13 02:40:00,70.5,63.3,29.62,South,180,0.4,0.4,78,0.00,,---,0.00,VWS V13.01,2013-02-13 07:40:00,
2013-02-13 02:50:00,70.5,63.3,29.62,South,180,2.5,15.0,78,0.00,,---,0.00,VWS V13.01,2013-02-13 07:50:00,
2013-02-13 03:01:00,70.7,63.5,29.62,South,180,2.5,2.5,78,0.00,,---,0.00,VWS V13.01,2013-02-13 08:01:00,
2013-02-13 03:10:00,70.9,64.1,29.62,South,180,4.3,4.5,79,0.00,,---,0.00,VWS V13.01,2013-02-13 08:10:00,
2013-02-13 03:20:00,71.2,64.4,29.62,SSW,202,1.8,3.8,79,0.00,,---,0.00,VWS V13.01,2013-02-13 08:20:00,
2013-02-13 03:31:00,71.4,64.9,29.62,SSE,158,3.4,3.4,80,0.00,,---,0.00,VWS V13.01,2013-02-13 08:31:00,
2013-02-13 03:40:00,71.4,64.9,29.62,South,180,2.2,2.2,80,0.00,,---,0.00,VWS V13.01,2013-02-13 08:40:00,
2013-02-13 03:50:00,72.0,65.5,29.62,South,180,1.3,4.5,80,0.00,,---,0.00,VWS V13.01,2013-02-13 08:50:00,
2013-02-13 04:00:00,72.3,65.8,29.62,SSW,202,3.6,3.6,80,0.00,,---,0.00,VWS V13.01,2013-02-13 09:00:00,
2013-02-13 04:10:00,72.5,66.0,29.62,SSW,202,4.9,4.9,80,0.00,,---,0.00,VWS V13.01,2013-02-13 09:10:00,
2013-02-13 04:20:00,72.5,66.0,29.62,SSW,202,1.3,3.1,80,0.00,,---,0.00,VWS V13.01,2013-02-13 09:20:00,
2013-02-13 04:30:00,72.7,66.2,29.63,SSW,202,0.7,2.7,80,0.00,,---,0.00,VWS V13.01,2013-02-13 09:30:00,
2013-02-13 04:40:00,72.7,65.8,29.62,SSW,202,0.0,0.7,79,0.00,,---,0.00,VWS V13.01,2013-02-13 09:40:00,
2013-02-13 04:50:00,72.7,65.8,29.62,South,180,13.9,13.9,79,0.00,,---,0.00,VWS V13.01,2013-02-13 09:50:00,
2013-02-13 05:00:00,72.7,65.8,29.62,SSW,202,19.0,19.0,79,0.00,,---,0.00,VWS V13.01,2013-02-13 10:00:00,
2013-02-13 05:05:00,72.7,65.8,29.62,SSW,202,0.9,19.0,79,0.00,,---,0.00,VWS V13.01,2013-02-13 10:05:00,
2013-02-13 05:15:00,72.5,65.6,29.62,SSW,202,20.4,20.4,79,0.00,,---,0.00,VWS V13.01,2013-02-13 10:15:00,
2013-02-13 05:25:00,72.5,65.6,29.62,SSW,202,20.4,20.4,79,0.00,,---,0.00,VWS V13.01,2013-02-13 10:25:00,
2013-02-13 05:35:00,72.1,65.3,29.62,SSW,202,3.8,20.4,79,0.00,,---,0.00,VWS V13.01,2013-02-13 10:35:00,
2013-02-13 05:45:00,72.1,65.3,29.62,South,180,2.2,3.8,79,0.00,,---,0.00,VWS V13.01,2013-02-13 10:45:00,
2013-02-13 05:55:00,72.3,65.4,29.63,SSW,202,0.9,0.9,79,0.00,,---,0.00,VWS V13.01,2013-02-13 10:55:00,
2013-02-13 06:05:00,72.3,65.4,29.63,South,180,1.6,6.3,79,0.00,,---,0.00,VWS V13.01,2013-02-13 11:05:00,
2013-02-13 06:10:00,72.5,65.6,29.63,SSW,202,4.0,4.5,79,0.00,,---,0.00,VWS V13.01,2013-02-13 11:10:00,
2013-02-13 06:20:00,72.7,65.8,29.63,South,180,1.1,5.1,79,0.00,,---,0.00,VWS V13.01,2013-02-13 11:20:00,
2013-02-13 06:30:00,72.7,65.8,29.63,SSW,202,4.5,8.3,79,0.00,,---,0.00,VWS V13.01,2013-02-13 11:30:00,
2013-02-13 06:35:00,72.7,65.8,29.63,ESE,112,4.7,4.7,79,0.00,,---,0.00,VWS V13.01,2013-02-13 11:35:00,
2013-02-13 06:40:00,72.7,65.8,29.62,SSW,202,5.1,5.1,79,0.00,,---,0.00,VWS V13.01,2013-02-13 11:40:00,
2013-02-13 06:50:00,72.9,66.0,29.63,South,180,6.7,6.9,79,0.00,,---,0.00,VWS V13.01,2013-02-13 11:50:00,
2013-02-13 07:00:00,73.0,66.2,29.63,South,180,8.1,8.1,79,0.00,,---,0.00,VWS V13.01,2013-02-13 12:00:00,
2013-02-13 07:10:00,73.0,66.2,29.63,SSW,202,4.7,4.9,79,0.00,,---,0.00,VWS V13.01,2013-02-13 12:10:00,
2013-02-13 07:20:00,73.0,66.2,29.63,SSW,202,3.4,7.8,79,0.00,,---,0.00,VWS V13.01,2013-02-13 12:20:00,
2013-02-13 07:25:00,73.0,66.2,29.63,South,180,6.9,6.9,79,0.00,,---,0.00,VWS V13.01,2013-02-13 12:25:00,
2013-02-13 07:35:00,73.2,66.3,29.63,South,180,7.2,9.8,79,0.00,,---,0.00,VWS V13.01,2013-02-13 12:35:00,
2013-02-13 07:40:00,73.2,66.3,29.63,South,180,7.2,7.2,79,0.00,,---,0.00,VWS V13.01,2013-02-13 12:40:00,
2013-02-13 07:50:00,74.1,66.8,29.63,South,180,5.4,13.9,78,0.00,,---,0.00,VWS V13.01,2013-02-13 12:50:00,
2013-02-13 08:00:00,74.5,67.2,29.64,SSW,202,7.6,7.6,78,0.00,,---,0.00,VWS V13.01,2013-02-13 13:00:00,
2013-02-13 08:10:00,74.8,67.5,29.64,SW,225,6.5,6.5,78,0.00,,---,0.00,VWS V13.01,2013-02-13 13:10:00,
2013-02-13 08:15:00,75.4,67.7,29.64,SSW,202,6.9,11.6,77,0.00,,---,0.00,VWS V13.01,2013-02-13 13:15:00,
2013-02-13 08:25:00,75.7,67.6,29.64,SSE,158,4.5,4.5,76,0.00,,---,0.00,VWS V13.01,2013-02-13 13:25:00,
2013-02-13 08:35:00,76.3,68.2,29.64,SE,135,4.9,10.1,76,0.00,,---,0.00,VWS V13.01,2013-02-13 13:35:00,
2013-02-13 08:40:00,76.5,67.9,29.64,SSW,202,13.2,13.2,75,0.00,,---,0.00,VWS V13.01,2013-02-13 13:40:00,
2013-02-13 08:50:00,76.8,67.9,29.65,South,180,9.6,14.5,74,0.00,,---,0.00,VWS V13.01,2013-02-13 13:50:00,
2013-02-13 08:55:00,77.2,68.3,29.65,SW,225,18.8,18.8,74,0.00,,---,0.00,VWS V13.01,2013-02-13 13:55:00,
2013-02-13 09:05:00,77.7,68.4,29.65,SSW,202,11.2,11.2,73,0.00,,---,0.00,VWS V13.01,2013-02-13 14:05:00,
2013-02-13 09:15:00,78.6,68.8,29.65,South,180,4.5,6.9,72,0.00,,---,0.00,VWS V13.01,2013-02-13 14:15:00,
2013-02-13 09:20:00,78.6,68.4,29.65,SSE,158,2.9,4.5,71,0.00,,---,0.00,VWS V13.01,2013-02-13 14:20:00,
2013-02-13 09:30:00,79.7,69.5,29.65,South,180,7.2,16.3,71,0.00,,---,0.00,VWS V13.01,2013-02-13 14:30:00,
2013-02-13 09:40:00,80.1,69.4,29.65,SSW,202,10.1,13.9,70,0.00,,---,0.00,VWS V13.01,2013-02-13 14:40:00,
2013-02-13 09:50:00,79.7,68.6,29.66,South,180,6.3,14.3,69,0.00,,---,0.00,VWS V13.01,2013-02-13 14:50:00,
2013-02-13 10:00:00,79.7,69.1,29.65,South,180,18.3,18.3,70,0.00,,---,0.00,VWS V13.01,2013-02-13 15:00:00,
2013-02-13 10:05:00,80.2,69.2,29.65,SSW,202,8.7,18.3,69,0.00,,---,0.00,VWS V13.01,2013-02-13 15:05:00,
2013-02-13 10:15:00,81.1,69.6,29.66,South,180,6.7,15.0,68,0.00,,---,0.00,VWS V13.01,2013-02-13 15:15:00,
2013-02-13 10:25:00,81.7,70.1,29.65,SSE,158,6.3,18.1,68,0.00,,---,0.00,VWS V13.01,2013-02-13 15:25:00,
2013-02-13 10:30:00,81.3,69.3,29.65,South,180,9.0,13.6,67,0.00,,---,0.00,VWS V13.01,2013-02-13 15:30:00,
2013-02-13 10:35:00,81.0,69.0,29.65,SSW,202,15.2,15.2,67,0.00,,---,0.00,VWS V13.01,2013-02-13 15:35:00,
2013-02-13 10:45:00,80.8,69.2,29.65,South,180,4.5,10.7,68,0.00,,---,0.00,VWS V13.01,2013-02-13 15:45:00,
2013-02-13 10:55:00,80.8,69.7,29.65,SSE,158,8.5,14.8,69,0.00,,---,0.00,VWS V13.01,2013-02-13 15:55:00,
2013-02-13 11:05:00,81.3,69.8,29.65,SSW,202,15.7,15.7,68,0.00,,---,0.00,VWS V13.01,2013-02-13 16:05:00,
2013-02-13 11:15:00,82.0,70.4,29.65,South,180,15.7,15.7,68,0.00,,---,0.00,VWS V13.01,2013-02-13 16:15:00,
2013-02-13 11:25:00,82.4,70.3,29.64,SW,225,6.3,6.3,67,0.00,,---,0.00,VWS V13.01,2013-02-13 16:25:00,
2013-02-13 11:35:00,82.4,70.8,29.64,SSE,158,12.3,12.3,68,0.00,,---,0.00,VWS V13.01,2013-02-13 16:35:00,
2013-02-13 11:45:00,82.0,70.4,29.64,South,180,9.4,9.4,68,0.00,,---,0.00,VWS V13.01,2013-02-13 16:45:00,
2013-02-13 11:50:00,81.5,70.4,29.64,ESE,112,7.8,10.5,69,0.00,,---,0.00,VWS V13.01,2013-02-13 16:50:00,
2013-02-13 12:00:00,81.3,70.2,29.63,SE,135,6.7,9.2,69,0.00,,---,0.00,VWS V13.01,2013-02-13 17:00:00,
2013-02-13 12:10:00,81.7,70.5,29.63,SSE,158,10.3,10.3,69,0.00,,---,0.00,VWS V13.01,2013-02-13 17:10:00,
2013-02-13 12:15:00,81.5,70.4,29.62,South,180,10.5,10.5,69,0.00,,---,0.00,VWS V13.01,2013-02-13 17:15:00,
2013-02-13 12:25:00,81.7,70.1,29.61,SSE,158,19.0,19.0,68,0.00,,---,0.00,VWS V13.01,2013-02-13 17:25:00,
2013-02-13 12:35:00,81.1,69.6,29.61,ESE,112,7.8,19.0,68,0.00,,---,0.00,VWS V13.01,2013-02-13 17:35:00,
2013-02-13 12:45:00,81.7,70.1,29.60,SSE,158,12.1,12.1,68,0.00,,---,0.00,VWS V13.01,2013-02-13 17:45:00,
2013-02-13 12:55:00,82.0,70.0,29.60,SSE,158,7.6,18.1,67,0.00,,---,0.00,VWS V13.01,2013-02-13 17:55:00,
2013-02-13 13:00:00,82.0,70.4,29.59,South,180,12.8,12.8,68,0.00,,---,0.00,VWS V13.01,2013-02-13 18:00:00,
2013-02-13 13:10:00,82.9,70.4,29.59,South,180,7.4,7.4,66,0.00,,---,0.00,VWS V13.01,2013-02-13 18:10:00,
2013-02-13 13:15:00,82.6,70.1,29.58,South,180,12.5,12.5,66,0.00,,---,0.00,VWS V13.01,2013-02-13 18:15:00,
2013-02-13 13:25:00,83.3,70.3,29.58,WSW,248,15.0,15.0,65,0.00,,---,0.00,VWS V13.01,2013-02-13 18:25:00,
2013-02-13 13:35:00,83.5,70.5,29.58,SSW,202,5.8,15.0,65,0.00,,---,0.00,VWS V13.01,2013-02-13 18:35:00,
2013-02-13 13:40:00,83.5,70.5,29.58,SSE,158,12.5,12.5,65,0.00,,---,0.00,VWS V13.01,2013-02-13 18:40:00,
2013-02-13 13:45:00,83.3,70.3,29.57,WSW,248,12.5,12.5,65,0.00,,---,0.00,VWS V13.01,2013-02-13 18:45:00,
2013-02-13 13:55:00,82.9,70.0,29.57,WSW,248,13.6,13.6,65,0.00,,---,0.00,VWS V13.01,2013-02-13 18:55:00,
2013-02-13 14:05:00,82.6,69.6,29.56,SW,225,5.1,23.0,65,0.00,,---,0.00,VWS V13.01,2013-02-13 19:05:00,
2013-02-13 14:15:00,82.9,70.0,29.56,South,180,16.3,16.3,65,0.00,,---,0.00,VWS V13.01,2013-02-13 19:15:00,
2013-02-13 14:25:00,82.2,69.7,29.55,SE,135,7.2,7.2,66,0.00,,---,0.00,VWS V13.01,2013-02-13 19:25:00,
2013-02-13 14:30:00,82.0,69.6,29.55,SSW,202,9.6,18.3,66,0.00,,---,0.00,VWS V13.01,2013-02-13 19:30:00,
2013-02-13 14:40:00,82.4,69.9,29.55,SSE,158,9.8,11.6,66,0.00,,---,0.00,VWS V13.01,2013-02-13 19:40:00,
2013-02-13 14:50:00,81.9,69.4,29.55,South,180,15.7,25.7,66,0.00,,---,0.00,VWS V13.01,2013-02-13 19:50:00,
2013-02-13 15:00:00,81.1,68.7,29.55,SSE,158,8.1,11.0,66,0.00,,---,0.00,VWS V13.01,2013-02-13 20:00:00,
2013-02-13 15:10:00,81.0,69.4,29.55,East,90,11.9,11.9,68,0.00,,---,0.00,VWS V13.01,2013-02-13 20:10:00,
2013-02-13 15:15:00,81.0,69.4,29.55,East,90,11.9,11.9,68,0.00,,---,0.00,VWS V13.01,2013-02-13 20:15:00,
2013-02-13 15:25:00,81.0,69.0,29.55,SSW,202,18.3,18.3,67,0.00,,---,0.00,VWS V13.01,2013-02-13 20:25:00,
2013-02-13 15:35:00,80.4,68.5,29.55,South,180,11.4,19.9,67,0.00,,---,0.00,VWS V13.01,2013-02-13 20:35:00,
2013-02-13 15:45:00,80.6,69.1,29.55,SE,135,5.6,21.7,68,0.00,,---,0.00,VWS V13.01,2013-02-13 20:45:00,
2013-02-13 15:50:00,80.6,69.1,29.54,SE,135,5.6,5.6,68,0.00,,---,0.00,VWS V13.01,2013-02-13 20:50:00,
2013-02-13 15:55:00,80.4,68.9,29.55,South,180,10.1,16.3,68,0.00,,---,0.00,VWS V13.01,2013-02-13 20:55:00,
2013-02-13 16:05:00,80.4,68.9,29.55,South,180,12.5,12.5,68,0.00,,---,0.00,VWS V13.01,2013-02-13 21:05:00,
2013-02-13 16:15:00,81.0,69.4,29.54,WSW,248,11.0,11.0,68,0.00,,---,0.00,VWS V13.01,2013-02-13 21:15:00,
2013-02-13 16:25:00,80.4,68.9,29.54,South,180,5.1,11.4,68,0.00,,---,0.00,VWS V13.01,2013-02-13 21:25:00,
2013-02-13 16:35:00,80.4,68.9,29.54,South,180,13.2,13.2,68,0.00,,---,0.00,VWS V13.01,2013-02-13 21:35:00,
2013-02-13 16:45:00,80.2,68.7,29.54,SSW,202,9.6,16.1,68,0.00,,---,0.00,VWS V13.01,2013-02-13 21:45:00,
2013-02-13 16:55:00,79.5,68.5,29.55,South,180,3.4,8.3,69,0.00,,---,0.00,VWS V13.01,2013-02-13 21:55:00,
2013-02-13 17:00:00,79.3,68.3,29.55,South,180,11.4,11.4,69,0.00,,---,0.00,VWS V13.01,2013-02-13 22:00:00,
2013-02-13 17:10:00,79.2,68.5,29.55,South,180,6.5,11.4,70,0.00,,---,0.00,VWS V13.01,2013-02-13 22:10:00,
2013-02-13 17:20:00,79.0,68.8,29.55,SSW,202,12.3,17.5,71,0.00,,---,0.00,VWS V13.01,2013-02-13 22:20:00,
2013-02-13 17:30:00,78.8,68.6,29.55,South,180,16.1,16.1,71,0.00,,---,0.00,VWS V13.01,2013-02-13 22:30:00,
2013-02-13 17:40:00,78.8,68.6,29.55,SSW,202,9.8,14.1,71,0.00,,---,0.00,VWS V13.01,2013-02-13 22:40:00,
2013-02-13 17:45:00,78.8,68.6,29.55,SSW,202,9.8,9.8,71,0.00,,---,0.00,VWS V13.01,2013-02-13 22:45:00,
2013-02-13 17:55:00,78.6,68.4,29.55,SE,135,4.3,9.0,71,0.00,,---,0.00,VWS V13.01,2013-02-13 22:55:00,
2013-02-13 18:00:00,78.6,68.4,29.55,South,180,6.3,6.3,71,0.00,,---,0.00,VWS V13.01,2013-02-13 23:00:00,
2013-02-13 18:10:00,78.6,68.4,29.55,SSE,158,3.1,13.6,71,0.00,,---,0.00,VWS V13.01,2013-02-13 23:10:00,
2013-02-13 18:15:00,78.4,68.3,29.55,SSE,158,3.1,3.1,71,0.00,,---,0.00,VWS V13.01,2013-02-13 23:15:00,
2013-02-13 18:20:00,78.3,68.1,29.55,SSW,202,7.6,7.6,71,0.00,,---,0.00,VWS V13.01,2013-02-13 23:20:00,
2013-02-13 18:30:00,78.1,68.3,29.55,South,180,6.7,6.7,72,0.00,,---,0.00,VWS V13.01,2013-02-13 23:30:00,
2013-02-13 18:40:00,77.9,68.2,29.56,South,180,6.5,7.4,72,0.00,,---,0.00,VWS V13.01,2013-02-13 23:40:00,
2013-02-13 18:50:00,77.9,68.2,29.56,South,180,7.2,7.2,72,0.00,,---,0.00,VWS V13.01,2013-02-13 23:50:00,
2013-02-13 19:00:00,77.7,68.0,29.56,South,180,1.8,1.8,72,0.00,,---,0.00,VWS V13.01,2013-02-14 00:00:00,
2013-02-13 19:05:00,77.5,68.2,29.57,South,180,4.7,4.7,73,0.00,,---,0.00,VWS V13.01,2013-02-14 00:05:00,
2013-02-13 19:15:00,77.4,68.0,29.57,SSW,202,3.4,3.8,73,0.00,,---,0.00,VWS V13.01,2013-02-14 00:15:00,
2013-02-13 19:20:00,77.4,68.0,29.57,South,180,8.1,8.1,73,0.00,,---,0.00,VWS V13.01,2013-02-14 00:20:00,
2013-02-13 19:30:00,77.2,67.9,29.57,South,180,2.5,2.7,73,0.00,,---,0.00,VWS V13.01,2013-02-14 00:30:00,
2013-02-13 19:40:00,76.8,67.5,29.57,South,180,2.0,2.7,73,0.00,,---,0.00,VWS V13.01,2013-02-14 00:40:00,
2013-02-13 19:50:00,76.8,67.5,29.57,SSE,158,6.0,6.0,73,0.00,,---,0.00,VWS V13.01,2013-02-14 00:50:00,
2013-02-13 20:00:00,76.6,67.3,29.57,SSE,158,4.7,5.8,73,0.00,,---,0.00,VWS V13.01,2013-02-14 01:00:00,
2013-02-13 20:05:00,76.6,67.3,29.58,SSW,202,1.8,4.7,73,0.00,,---,0.00,VWS V13.01,2013-02-14 01:05:00,
2013-02-13 20:15:00,76.5,67.2,29.58,SSW,202,2.0,2.0,73,0.00,,---,0.00,VWS V13.01,2013-02-14 01:15:00,
2013-02-13 20:20:00,76.3,67.0,29.58,South,180,0.0,5.4,73,0.00,,---,0.00,VWS V13.01,2013-02-14 01:20:00,
2013-02-13 20:30:00,76.1,66.8,29.59,SW,225,1.3,3.4,73,0.00,,---,0.00,VWS V13.01,2013-02-14 01:30:00,
2013-02-13 20:35:00,76.1,66.8,29.59,SW,225,7.2,7.2,73,0.00,,---,0.00,VWS V13.01,2013-02-14 01:35:00,
2013-02-13 20:45:00,76.1,66.4,29.59,WSW,248,2.5,3.8,72,0.00,,---,0.00,VWS V13.01,2013-02-14 01:45:00,
2013-02-13 20:50:00,75.9,66.2,29.60,WSW,248,4.9,4.9,72,0.00,,---,0.00,VWS V13.01,2013-02-14 01:50:00,
2013-02-13 21:00:00,75.9,66.2,29.60,SW,225,4.9,4.9,72,0.00,,---,0.00,VWS V13.01,2013-02-14 02:00:00,
2013-02-13 21:10:00,75.9,66.2,29.60,WSW,248,7.4,7.4,72,0.00,,---,0.00,VWS V13.01,2013-02-14 02:10:00,
2013-02-13 21:15:00,75.9,66.7,29.60,West,270,0.0,7.4,73,0.00,,---,0.00,VWS V13.01,2013-02-14 02:15:00,
2013-02-13 21:25:00,75.7,66.5,29.60,SSW,202,5.8,5.8,73,0.00,,---,0.00,VWS V13.01,2013-02-14 02:25:00,
2013-02-13 21:35:00,75.7,66.5,29.60,SW,225,1.6,4.9,73,0.00,,---,0.00,VWS V13.01,2013-02-14 02:35:00,
2013-02-13 21:40:00,75.6,66.3,29.60,WSW,248,5.4,8.3,73,0.00,,---,0.00,VWS V13.01,2013-02-14 02:40:00,
2013-02-13 21:50:00,75.4,66.5,29.61,SSW,202,3.4,7.8,74,0.00,,---,0.00,VWS V13.01,2013-02-14 02:50:00,
2013-02-13 22:00:00,75.4,66.5,29.61,SSW,202,0.9,6.0,74,0.00,,---,0.00,VWS V13.01,2013-02-14 03:00:00,
2013-02-13 22:10:00,75.0,66.6,29.61,WSW,248,2.0,3.6,75,0.00,,---,0.00,VWS V13.01,2013-02-14 03:10:00,
2013-02-13 22:15:00,75.0,66.6,29.61,WSW,248,2.0,2.0,75,0.00,,---,0.00,VWS V13.01,2013-02-14 03:15:00,
2013-02-13 22:20:00,75.0,66.6,29.62,SW,225,7.8,7.8,75,0.00,,---,0.00,VWS V13.01,2013-02-14 03:20:00,
2013-02-13 22:30:00,74.8,66.4,29.62,WSW,248,2.9,7.8,75,0.00,,---,0.00,VWS V13.01,2013-02-14 03:30:00,
2013-02-13 22:35:00,74.8,66.4,29.62,West,270,5.8,5.8,75,0.00,,---,0.00,VWS V13.01,2013-02-14 03:35:00,
2013-02-13 22:45:00,74.8,66.4,29.62,WNW,292,2.2,5.4,75,0.00,,---,0.00,VWS V13.01,2013-02-14 03:45:00,
2013-02-13 22:55:00,74.5,66.0,29.62,SW,225,3.1,3.1,75,0.00,,---,0.00,VWS V13.01,2013-02-14 03:55:00,
2013-02-13 23:05:00,74.5,66.4,29.62,SW,225,3.1,3.1,76,0.00,,---,0.00,VWS V13.01,2013-02-14 04:05:00,
2013-02-13 23:10:00,74.3,66.2,29.62,SSW,202,0.0,3.1,76,0.00,,---,0.00,VWS V13.01,2013-02-14 04:10:00,
2013-02-13 23:20:00,74.3,66.2,29.62,SW,225,2.0,15.0,76,0.00,,---,0.00,VWS V13.01,2013-02-14 04:20:00,
2013-02-13 23:25:00,74.1,66.1,29.61,SW,225,1.1,2.0,76,0.00,,---,0.00,VWS V13.01,2013-02-14 04:25:00,
2013-02-13 23:30:00,74.1,66.1,29.61,SW,225,1.1,1.1,76,0.00,,---,0.00,VWS V13.01,2013-02-14 04:30:00,
2013-02-13 23:40:00,74.1,66.1,29.61,SSW,202,2.0,4.3,76,0.00,,---,0.00,VWS V13.01,2013-02-14 04:40:00,
2013-02-13 23:50:00,73.9,66.3,29.61,South,180,7.4,7.4,77,0.00,,---,0.00,VWS V13.01,2013-02-14 04:50:00,
2013-02-13 23:55:00,73.9,66.3,29.61,SSW,202,6.5,7.4,77,0.00,,---,0.00,VWS V13.01,2013-02-14 04:55:00,